createdAt,value
2018-03-14T00:00:50.606Z,8.77
2018-03-14T00:03:22.617Z,8.57
2018-03-14T00:05:53.989Z,8.57
2018-03-14T00:08:25.194Z,8.77
2018-03-14T00:10:57.529Z,9.70
2018-03-14T00:13:29.461Z,9.57
2018-03-14T00:15:59.914Z,10.67
2018-03-14T00:18:31.868Z,10.33
2018-03-14T00:21:03.155Z,9.50
2018-03-14T00:23:35.036Z,10.37
2018-03-14T00:26:06.555Z,9.20
2018-03-14T00:28:38.902Z,10.43
2018-03-14T00:31:10.254Z,10.63
2018-03-14T00:33:41.070Z,10.10
2018-03-14T00:36:12.437Z,10.20
2018-03-14T00:38:42.724Z,10.80
2018-03-14T00:41:14.917Z,10.27
2018-03-14T00:43:46.073Z,10.33
2018-03-14T00:46:17.998Z,10.40
2018-03-14T00:48:49.039Z,10.73
2018-03-14T00:51:20.620Z,10.93
2018-03-14T00:53:52.246Z,11.40
2018-03-14T00:56:23.522Z,9.93
2018-03-14T00:58:55.483Z,10.20
2018-03-14T01:01:27.115Z,9.23
2018-03-14T01:03:58.326Z,9.80
2018-03-14T01:06:29.643Z,10.33
2018-03-14T01:09:00.034Z,9.03
2018-03-14T01:11:31.269Z,10.03
2018-03-14T01:14:01.779Z,9.83
2018-03-14T01:16:32.033Z,9.63
2018-03-14T01:19:02.404Z,9.43
2018-03-14T01:21:32.686Z,9.20
2018-03-14T01:24:03.992Z,9.30
2018-03-14T01:26:35.147Z,8.10
2018-03-14T01:29:07.015Z,7.80
2018-03-14T01:31:38.227Z,7.87
2018-03-14T01:34:10.373Z,7.70
2018-03-14T01:36:41.849Z,7.70
2018-03-14T01:39:14.167Z,7.47
2018-03-14T01:41:45.474Z,7.10
2018-03-14T01:44:16.819Z,7.40
2018-03-14T01:46:48.707Z,7.20
2018-03-14T01:49:20.120Z,7.20
2018-03-14T01:51:51.513Z,6.27
2018-03-14T01:54:23.091Z,7.13
2018-03-14T01:56:54.910Z,6.70
2018-03-14T01:59:26.324Z,6.63
2018-03-14T02:01:57.643Z,7.03
2018-03-14T02:04:29.177Z,7.47
2018-03-14T02:07:00.230Z,7.27
2018-03-14T02:09:30.865Z,7.60
2018-03-14T02:12:01.137Z,8.07
2018-03-14T02:14:31.461Z,7.13
2018-03-14T02:17:02.048Z,7.50
2018-03-14T02:19:33.506Z,8.37
2018-03-14T02:22:05.624Z,7.80
2018-03-14T02:24:38.526Z,7.30
2018-03-14T02:27:13.146Z,7.17
2018-03-14T02:29:45.997Z,7.03
2018-03-14T02:32:18.892Z,7.90
2018-03-14T02:34:51.166Z,7.90
2018-03-14T02:37:22.318Z,7.23
2018-03-14T02:39:53.629Z,6.97
2018-03-14T02:42:25.608Z,6.93
2018-03-14T02:44:56.818Z,6.83
2018-03-14T02:47:29.425Z,8.07
2018-03-14T02:50:02.782Z,7.43
2018-03-14T02:52:35.413Z,6.80
2018-03-14T02:55:07.418Z,6.80
2018-03-14T02:57:39.219Z,7.03
2018-03-14T03:00:10.802Z,6.67
2018-03-14T03:02:42.786Z,6.17
2018-03-14T03:05:15.115Z,5.63
2018-03-14T03:07:47.432Z,6.57
2018-03-14T03:10:18.833Z,5.80
2018-03-14T03:12:51.800Z,5.47
2018-03-14T03:15:23.669Z,5.47
2018-03-14T03:17:55.778Z,5.30
2018-03-14T03:20:27.132Z,5.50
2018-03-14T03:22:58.368Z,5.60
2018-03-14T03:25:30.874Z,6.37
2018-03-14T03:28:03.298Z,6.50
2018-03-14T03:30:35.580Z,6.50
2018-03-14T03:33:07.678Z,6.97
2018-03-14T03:35:40.217Z,6.63
2018-03-14T03:38:12.300Z,7.00
2018-03-14T03:40:44.758Z,7.33
2018-03-14T03:43:17.046Z,7.23
2018-03-14T03:45:49.147Z,7.47
2018-03-14T03:48:22.290Z,7.40
2018-03-14T03:50:55.201Z,6.63
2018-03-14T03:53:27.350Z,6.23
2018-03-14T03:55:59.160Z,7.53
2018-03-14T03:58:30.409Z,6.53
2018-03-14T04:01:02.757Z,6.73
2018-03-14T04:03:34.869Z,6.57
2018-03-14T04:06:06.973Z,6.97
2018-03-14T04:08:39.612Z,6.90
2018-03-14T04:11:10.933Z,6.30
2018-03-14T04:13:42.825Z,6.00
2018-03-14T04:16:14.072Z,5.70
2018-03-14T04:18:45.258Z,5.60
2018-03-14T04:21:17.290Z,5.80
2018-03-14T04:23:48.789Z,5.00
2018-03-14T04:26:20.657Z,4.90
2018-03-14T04:28:52.661Z,5.13
2018-03-14T04:31:24.240Z,5.40
2018-03-14T04:33:55.481Z,5.87
2018-03-14T04:36:26.871Z,5.53
2018-03-14T04:38:58.061Z,4.97
2018-03-14T04:41:29.269Z,5.57
2018-03-14T04:44:00.562Z,5.50
2018-03-14T04:46:32.030Z,5.70
2018-03-14T04:49:03.993Z,5.50
2018-03-14T04:51:35.145Z,5.13
2018-03-14T04:54:06.613Z,5.67
2018-03-14T04:56:39.285Z,5.60
2018-03-14T04:59:11.226Z,5.77
2018-03-14T05:01:44.106Z,6.00
2018-03-14T05:04:16.256Z,5.30
2018-03-14T05:06:49.744Z,5.63
2018-03-14T05:09:21.074Z,5.63
2018-03-14T05:11:52.210Z,5.83
2018-03-14T05:14:23.436Z,5.63
2018-03-14T05:16:54.489Z,5.13
2018-03-14T05:19:25.579Z,5.23
2018-03-14T05:21:57.823Z,5.93
2018-03-14T05:24:29.331Z,6.03
2018-03-14T05:27:01.400Z,6.27
2018-03-14T05:29:32.697Z,6.03
2018-03-14T05:32:04.198Z,6.10
2018-03-14T05:34:36.544Z,5.93
2018-03-14T05:37:08.819Z,6.30
2018-03-14T05:39:40.345Z,5.70
2018-03-14T05:42:12.638Z,6.20
2018-03-14T05:44:43.699Z,6.10
2018-03-14T05:47:16.071Z,6.47
2018-03-14T05:49:47.294Z,6.70
2018-03-14T05:52:18.609Z,6.40
2018-03-14T05:54:50.907Z,6.97
2018-03-14T05:57:23.301Z,7.63
2018-03-14T05:59:54.465Z,6.40
2018-03-14T06:02:25.890Z,6.53
2018-03-14T06:04:57.096Z,6.63
2018-03-14T06:07:27.714Z,6.20
2018-03-14T06:09:58.883Z,6.60
2018-03-14T06:12:29.208Z,6.40
2018-03-14T06:15:00.593Z,5.97
2018-03-14T06:17:31.791Z,6.17
2018-03-14T06:20:03.152Z,6.20
2018-03-14T06:22:35.538Z,7.50
2018-03-14T06:25:06.760Z,6.60
2018-03-14T06:27:38.061Z,7.07
2018-03-14T06:30:10.186Z,7.03
2018-03-14T06:32:42.950Z,6.87
2018-03-14T06:35:15.261Z,6.87
2018-03-14T06:37:46.919Z,7.30
2018-03-14T06:40:18.159Z,7.20
2018-03-14T06:42:50.921Z,6.67
2018-03-14T06:45:24.157Z,6.97
2018-03-14T06:47:55.654Z,6.50
2018-03-14T06:50:27.615Z,6.57
2018-03-14T06:53:00.454Z,8.23
2018-03-14T06:55:31.759Z,7.27
2018-03-14T06:58:03.742Z,7.30
2018-03-14T07:02:48.601Z,8.90
2018-03-14T07:06:24.099Z,8.73
2018-03-14T07:08:55.631Z,9.67
2018-03-14T07:11:27.073Z,9.63
2018-03-14T07:13:58.171Z,9.27
2018-03-14T07:16:29.274Z,8.60
2018-03-14T07:19:00.761Z,9.40
2018-03-14T07:21:33.062Z,8.97
2018-03-14T07:24:04.474Z,9.80
2018-03-14T07:26:37.052Z,8.37
2018-03-14T07:29:09.044Z,8.80
2018-03-14T07:31:42.853Z,9.70
2018-03-14T07:34:15.326Z,9.33
2018-03-14T07:36:47.443Z,9.73
2018-03-14T07:39:19.064Z,9.77
2018-03-14T07:41:49.422Z,9.97
2018-03-14T07:44:19.682Z,10.07
2018-03-14T07:46:50.718Z,10.33
2018-03-14T07:49:21.791Z,11.07
2018-03-14T07:51:52.348Z,16.50
2018-03-14T07:54:22.791Z,15.60
2018-03-14T07:56:53.754Z,16.30
2018-03-14T07:59:24.124Z,18.67
2018-03-14T08:01:55.238Z,15.93
2018-03-14T08:04:26.732Z,14.10
2018-03-14T08:06:58.632Z,13.63
2018-03-14T08:09:30.181Z,12.70
2018-03-14T08:12:02.174Z,9.87
2018-03-14T08:14:33.362Z,10.70
2018-03-14T08:17:04.540Z,10.63
2018-03-14T08:19:35.608Z,9.93
2018-03-14T08:22:07.068Z,10.47
2018-03-14T08:24:38.136Z,9.80
2018-03-14T08:27:10.226Z,10.03
2018-03-14T08:29:42.322Z,8.37
2018-03-14T08:32:13.434Z,9.00
2018-03-14T08:34:46.434Z,8.50
2018-03-14T08:37:17.573Z,7.37
2018-03-14T08:39:48.789Z,7.67
2018-03-14T08:42:19.974Z,6.20
2018-03-14T08:44:51.236Z,6.33
2018-03-14T08:47:22.304Z,6.47
2018-03-14T08:49:53.547Z,6.33
2018-03-14T08:52:25.777Z,6.87
2018-03-14T08:54:57.842Z,6.47
2018-03-14T08:57:29.893Z,6.13
2018-03-14T09:00:02.016Z,5.60
2018-03-14T09:02:34.921Z,5.87
2018-03-14T09:05:07.905Z,5.33
2018-03-14T09:07:40.029Z,5.30
2018-03-14T09:10:11.392Z,5.50
2018-03-14T09:12:43.330Z,5.10
2018-03-14T09:15:16.975Z,5.13
2018-03-14T09:17:48.167Z,5.00
2018-03-14T09:20:20.831Z,4.87
2018-03-14T09:22:52.920Z,4.40
2018-03-14T09:25:24.073Z,4.13
2018-03-14T09:27:55.990Z,4.50
2018-03-14T09:30:28.082Z,3.57
2018-03-14T09:33:01.954Z,3.30
2018-03-14T09:35:34.185Z,3.73
2018-03-14T09:38:07.128Z,3.87
2018-03-14T09:40:38.635Z,3.40
2018-03-14T09:43:09.798Z,3.50
2018-03-14T09:45:40.969Z,3.73
2018-03-14T09:48:12.129Z,3.90
2018-03-14T09:50:43.189Z,3.20
2018-03-14T09:53:14.687Z,3.33
2018-03-14T09:55:45.846Z,3.13
2018-03-14T09:58:17.002Z,3.00
2018-03-14T10:00:48.472Z,3.00
2018-03-14T10:03:20.410Z,3.07
2018-03-14T10:05:52.266Z,2.90
2018-03-14T10:08:22.813Z,2.83
2018-03-14T10:10:54.723Z,3.13
2018-03-14T10:13:26.733Z,2.67
2018-03-14T10:15:57.561Z,3.00
2018-03-14T10:18:28.181Z,3.10
2018-03-14T10:20:59.020Z,3.10
2018-03-14T10:23:30.181Z,2.70
2018-03-14T10:26:01.419Z,2.80
2018-03-14T10:28:32.673Z,2.70
2018-03-14T10:31:03.733Z,3.03
2018-03-14T10:33:35.503Z,2.90
2018-03-14T10:36:07.504Z,2.97
2018-03-14T10:38:38.682Z,2.70
2018-03-14T10:41:10.234Z,2.60
2018-03-14T10:43:41.356Z,2.57
2018-03-14T10:46:13.422Z,2.73
2018-03-14T10:48:45.934Z,2.57
2018-03-14T10:51:17.130Z,2.60
2018-03-14T10:53:48.283Z,2.57
2018-03-14T10:56:19.732Z,2.70
2018-03-14T10:58:50.350Z,2.30
2018-03-14T11:01:22.232Z,2.70
2018-03-14T11:03:52.776Z,2.60
2018-03-14T11:06:23.465Z,2.83
2018-03-14T11:08:54.105Z,2.70
2018-03-14T11:11:24.704Z,2.50
2018-03-14T11:13:55.281Z,2.50
2018-03-14T11:16:27.041Z,2.50
2018-03-14T11:18:58.239Z,2.90
2018-03-14T11:21:31.086Z,2.60
2018-03-14T11:24:02.338Z,2.60
2018-03-14T11:26:33.578Z,2.93
2018-03-14T11:29:05.087Z,3.20
2018-03-14T11:31:36.171Z,2.60
2018-03-14T11:34:08.468Z,2.90
2018-03-14T11:36:40.827Z,2.80
2018-03-14T11:39:12.205Z,2.80
2018-03-14T11:41:43.953Z,3.00
2018-03-14T11:44:15.124Z,2.70
2018-03-14T11:46:46.377Z,3.00
2018-03-14T11:49:17.862Z,2.70
2018-03-14T11:51:49.928Z,2.97
2018-03-14T11:54:21.140Z,2.60
2018-03-14T11:56:52.137Z,2.80
2018-03-14T11:59:22.620Z,2.67
2018-03-14T12:01:54.046Z,3.00
2018-03-14T12:04:24.674Z,3.17
2018-03-14T12:06:55.394Z,3.03
2018-03-14T12:09:26.721Z,2.70
2018-03-14T12:11:59.630Z,2.83
2018-03-14T12:14:31.886Z,3.00
2018-03-14T12:17:06.739Z,2.70
2018-03-14T12:19:39.948Z,2.90
2018-03-14T12:22:15.865Z,2.67
2018-03-14T12:24:47.071Z,2.30
2018-03-14T12:27:18.248Z,2.47
2018-03-14T12:29:50.166Z,2.53
2018-03-14T12:32:22.543Z,2.70
2018-03-14T12:34:54.514Z,2.70
2018-03-14T12:37:25.652Z,2.80
2018-03-14T12:39:56.882Z,2.67
2018-03-14T12:42:28.083Z,2.87
2018-03-14T12:44:59.670Z,2.67
2018-03-14T12:47:30.916Z,2.73
2018-03-14T12:50:01.995Z,2.90
2018-03-14T12:52:34.897Z,2.37
2018-03-14T12:55:07.559Z,2.63
2018-03-14T12:57:39.259Z,2.50
2018-03-14T13:00:10.943Z,2.60
2018-03-14T13:02:42.737Z,2.67
2018-03-14T13:05:13.250Z,2.90
2018-03-14T13:07:44.519Z,2.63
2018-03-14T13:10:15.088Z,3.10
2018-03-14T13:12:45.640Z,2.73
2018-03-14T13:15:17.262Z,3.00
2018-03-14T13:17:47.769Z,2.67
2018-03-14T13:20:19.520Z,2.40
2018-03-14T13:22:50.628Z,2.50
2018-03-14T13:25:22.860Z,2.60
2018-03-14T13:27:54.632Z,2.70
2018-03-14T13:30:25.721Z,2.60
2018-03-14T13:32:57.886Z,2.60
2018-03-14T13:35:29.813Z,2.50
2018-03-14T13:38:01.431Z,2.40
2018-03-14T13:40:32.786Z,2.90
2018-03-14T13:43:04.030Z,2.87
2018-03-14T13:45:35.174Z,3.37
2018-03-14T13:48:06.520Z,3.43
2018-03-14T13:50:37.645Z,2.60
2018-03-14T13:53:09.822Z,2.70
2018-03-14T13:55:41.059Z,2.60
2018-03-14T13:58:13.055Z,2.63
2018-03-14T14:00:44.427Z,2.70
2018-03-14T14:03:15.640Z,2.97
2018-03-14T14:05:48.238Z,2.90
2018-03-14T14:08:20.285Z,2.97
2018-03-14T14:10:52.338Z,2.70
2018-03-14T14:13:23.634Z,3.00
2018-03-14T14:15:54.824Z,3.07
2018-03-14T14:18:25.760Z,3.00
2018-03-14T14:20:56.387Z,3.20
2018-03-14T14:23:26.948Z,2.93
2018-03-14T14:25:59.386Z,2.70
2018-03-14T14:28:30.482Z,2.90
2018-03-14T14:31:02.639Z,3.70
2018-03-14T14:33:35.032Z,3.30
2018-03-14T14:36:07.051Z,3.30
2018-03-14T14:38:39.539Z,3.27
2018-03-14T14:41:11.055Z,3.70
2018-03-14T14:43:43.387Z,3.33
2018-03-14T14:46:14.048Z,3.20
2018-03-14T14:48:44.539Z,3.10
2018-03-14T14:51:15.335Z,3.57
2018-03-14T14:53:45.897Z,3.43
2018-03-14T14:56:17.364Z,3.40
2018-03-14T14:58:47.866Z,3.40
2018-03-14T15:01:19.215Z,4.43
2018-03-14T15:03:51.687Z,5.10
2018-03-14T15:06:23.230Z,3.97
2018-03-14T15:08:54.820Z,3.40
2018-03-14T15:11:27.851Z,3.87
2018-03-14T15:13:59.513Z,3.93
2018-03-14T15:16:31.013Z,3.80
2018-03-14T15:19:02.439Z,4.37
2018-03-14T15:21:34.490Z,4.03
2018-03-14T15:24:06.354Z,4.23
2018-03-14T15:26:38.675Z,4.40
2018-03-14T15:29:10.654Z,4.13
2018-03-14T15:31:41.947Z,4.00
2018-03-14T15:34:14.022Z,4.67
2018-03-14T15:36:46.116Z,4.20
2018-03-14T15:39:18.028Z,4.73
2018-03-14T15:41:49.556Z,4.70
2018-03-14T15:44:21.088Z,4.10
2018-03-14T15:46:52.661Z,4.40
2018-03-14T15:49:24.236Z,4.27
2018-03-14T15:51:57.040Z,4.33
2018-03-14T15:54:29.480Z,4.00
2018-03-14T15:57:02.489Z,3.83
2018-03-14T15:59:35.004Z,3.40
2018-03-14T16:02:07.060Z,3.13
2018-03-14T16:04:39.283Z,3.20
2018-03-14T16:07:10.926Z,3.60
2018-03-14T16:09:43.113Z,3.70
2018-03-14T16:12:15.468Z,3.80
2018-03-14T16:14:46.198Z,3.57
2018-03-14T16:17:17.914Z,3.93
2018-03-14T16:19:48.568Z,3.70
2018-03-14T16:22:19.105Z,3.77
2018-03-14T16:24:50.671Z,3.67
2018-03-14T16:27:21.518Z,5.13
2018-03-14T16:29:52.068Z,4.30
2018-03-14T16:32:23.075Z,4.40
2018-03-14T16:34:54.694Z,4.53
2018-03-14T16:37:25.650Z,4.10
2018-03-14T16:39:57.912Z,4.00
2018-03-14T16:42:28.942Z,4.30
2018-03-14T16:45:00.545Z,4.90
2018-03-14T16:47:31.094Z,5.40
2018-03-14T16:50:01.755Z,5.07
2018-03-14T16:52:34.047Z,5.20
2018-03-14T16:55:06.184Z,5.40
2018-03-14T16:57:39.228Z,5.10
2018-03-14T17:00:11.095Z,5.00
2018-03-14T17:02:42.928Z,5.50
2018-03-14T17:05:15.654Z,5.20
2018-03-14T17:07:48.019Z,6.03
2018-03-14T17:10:19.560Z,6.17
2018-03-14T17:12:51.144Z,6.40
2018-03-14T17:15:22.293Z,6.53
2018-03-14T17:17:54.902Z,7.47
2018-03-14T17:20:26.302Z,7.40
2018-03-14T17:22:58.695Z,7.57
2018-03-14T17:25:29.801Z,7.90
2018-03-14T17:28:00.590Z,8.03
2018-03-14T17:30:32.017Z,8.40
2018-03-14T17:33:02.895Z,8.53
2018-03-14T17:35:34.315Z,9.60
2018-03-14T17:38:05.910Z,9.07
2018-03-14T17:40:37.788Z,9.67
2018-03-14T17:43:08.697Z,9.63
2018-03-14T17:45:39.488Z,9.40
2018-03-14T17:48:10.124Z,10.53
2018-03-14T17:50:41.663Z,10.17
2018-03-14T17:53:14.673Z,8.93
2018-03-14T17:55:46.355Z,8.37
2018-03-14T17:58:18.358Z,8.43
2018-03-14T18:00:50.782Z,7.83
2018-03-14T18:03:24.235Z,7.13
2018-03-14T18:05:56.287Z,6.37
2018-03-14T18:08:29.126Z,6.13
2018-03-14T18:11:00.301Z,5.50
2018-03-14T18:13:32.500Z,5.40
2018-03-14T18:16:05.250Z,5.43
2018-03-14T18:18:37.392Z,5.23
2018-03-14T18:21:08.001Z,5.27
2018-03-14T18:23:40.118Z,5.20
2018-03-14T18:26:12.375Z,5.50
2018-03-14T18:28:44.116Z,7.10
2018-03-14T18:31:16.097Z,6.53
2018-03-14T18:33:49.510Z,7.20
2018-03-14T18:36:21.322Z,7.73
2018-03-14T18:38:52.970Z,7.57
2018-03-14T18:41:24.553Z,7.00
2018-03-14T18:43:57.165Z,6.50
2018-03-14T18:46:28.062Z,6.47
2018-03-14T18:48:59.396Z,6.63
2018-03-14T18:51:31.165Z,7.20
2018-03-14T18:54:02.568Z,7.30
2018-03-14T18:56:35.090Z,7.23
2018-03-14T18:59:06.806Z,7.40
2018-03-14T19:01:37.537Z,6.97
2018-03-14T19:04:08.114Z,9.47
2018-03-14T19:06:38.966Z,7.80
2018-03-14T19:09:09.573Z,8.57
2018-03-14T19:11:42.053Z,7.90
2018-03-14T19:14:14.659Z,7.83
2018-03-14T19:16:45.379Z,8.23
2018-03-14T19:19:16.015Z,8.47
2018-03-14T19:21:46.828Z,8.83
2018-03-14T19:24:18.925Z,8.20
2018-03-14T19:26:50.821Z,8.87
2018-03-14T19:29:22.670Z,8.90
2018-03-14T19:31:56.059Z,9.83
2018-03-14T19:34:29.224Z,10.07
2018-03-14T19:37:01.255Z,10.33
2018-03-14T19:39:34.519Z,9.83
2018-03-14T19:42:06.962Z,9.80
2018-03-14T19:44:40.401Z,10.33
2018-03-14T19:47:14.146Z,9.90
2018-03-14T19:49:47.468Z,10.03
2018-03-14T19:52:20.034Z,9.87
2018-03-14T19:54:51.617Z,10.60
2018-03-14T19:57:22.183Z,10.33
2018-03-14T19:59:52.897Z,9.93
2018-03-14T20:02:24.814Z,11.13
2018-03-14T20:04:55.675Z,9.80
2018-03-14T20:07:26.261Z,10.23
2018-03-14T20:09:56.878Z,10.07
2018-03-14T20:12:28.429Z,11.13
2018-03-14T20:15:01.830Z,11.23
2018-03-14T20:17:33.414Z,10.60
2018-03-14T20:20:03.986Z,10.43
2018-03-14T20:22:35.413Z,10.00
2018-03-14T20:25:07.209Z,10.27
2018-03-14T20:27:39.112Z,9.97
2018-03-14T20:30:11.597Z,10.43
2018-03-14T20:32:43.035Z,11.63
2018-03-14T20:35:14.951Z,10.87
2018-03-14T20:37:48.306Z,10.33
2018-03-14T20:40:20.481Z,9.60
2018-03-14T20:42:52.777Z,10.07
2018-03-14T20:45:25.039Z,11.07
2018-03-14T20:47:56.284Z,10.57
2018-03-14T20:50:28.015Z,11.17
2018-03-14T20:53:00.212Z,10.57
2018-03-14T20:55:31.787Z,11.40
2018-03-14T20:58:03.130Z,11.10
2018-03-14T21:00:34.442Z,10.70
2018-03-14T21:03:05.704Z,10.47
2018-03-14T21:05:37.692Z,9.37
2018-03-14T21:08:10.724Z,10.73
2018-03-14T21:10:42.898Z,11.50
2018-03-14T21:13:15.494Z,10.93
2018-03-14T21:15:47.890Z,11.73
2018-03-14T21:18:21.246Z,10.73
2018-03-14T21:20:53.917Z,10.57
2018-03-14T21:23:26.153Z,10.73
2018-03-14T21:25:58.743Z,11.67
2018-03-14T21:28:30.913Z,10.87
2018-03-14T21:31:03.897Z,11.13
2018-03-14T21:33:34.811Z,11.70
2018-03-14T21:36:05.830Z,11.70
2018-03-14T21:38:37.573Z,11.30
2018-03-14T21:41:09.259Z,12.00
2018-03-14T21:43:40.041Z,11.97
2018-03-14T21:46:11.955Z,11.57
2018-03-14T21:48:43.721Z,12.27
2018-03-14T21:51:15.574Z,11.47
2018-03-14T21:53:48.404Z,11.13
2018-03-14T21:56:19.875Z,11.07
2018-03-14T21:58:51.658Z,11.37
2018-03-14T22:01:24.248Z,11.20
2018-03-14T22:03:57.580Z,11.57
2018-03-14T22:06:29.568Z,10.43
2018-03-14T22:09:01.405Z,11.33
2018-03-14T22:11:34.268Z,11.67
2018-03-14T22:14:05.570Z,10.73
2018-03-14T22:16:36.668Z,11.70
2018-03-14T22:19:08.880Z,11.83
2018-03-14T22:21:41.102Z,11.10
2018-03-14T22:24:13.597Z,10.67
2018-03-14T22:26:45.689Z,10.77
2018-03-14T22:29:16.906Z,11.00
2018-03-14T22:31:47.857Z,11.33
2018-03-14T22:34:19.163Z,13.80
2018-03-14T22:36:49.697Z,11.80
2018-03-14T22:39:20.486Z,12.77
2018-03-14T22:41:51.063Z,11.97
2018-03-14T22:44:21.571Z,11.67
2018-03-14T22:46:53.389Z,12.10
2018-03-14T22:49:25.380Z,13.20
2018-03-14T22:51:57.442Z,12.33
2018-03-14T22:54:29.971Z,11.80
2018-03-14T22:57:01.585Z,12.03
2018-03-14T22:59:34.029Z,12.77
2018-03-14T23:02:06.698Z,11.77
2018-03-14T23:04:39.849Z,13.40
2018-03-14T23:07:12.040Z,12.30
2018-03-14T23:09:43.723Z,12.40
2018-03-14T23:12:15.374Z,12.03
2018-03-14T23:14:49.114Z,13.67
2018-03-14T23:17:19.612Z,13.10
2018-03-14T23:19:50.925Z,13.87
2018-03-14T23:22:22.061Z,14.90
2018-03-14T23:24:53.753Z,13.00
2018-03-14T23:27:26.048Z,12.53
2018-03-14T23:29:57.783Z,14.17
2018-03-14T23:32:30.230Z,14.07
2018-03-14T23:35:02.041Z,13.40
2018-03-14T23:37:33.778Z,13.63
2018-03-14T23:40:05.903Z,13.10
2018-03-14T23:42:38.852Z,15.57
2018-03-14T23:45:10.678Z,13.57
2018-03-14T23:47:41.683Z,13.07
2018-03-14T23:50:13.353Z,14.13
2018-03-14T23:52:45.721Z,14.33
2018-03-14T23:55:17.827Z,15.47
2018-03-14T23:57:50.448Z,15.73
